KCMI/CMI METAR and TAF weather

Enter ICAO airport designator
Station Type Date Time Source
KCMI METAR 2022/01/26 07:53 UTC NOAA

KCMI 260753Z AUTO 32009KT 10SM CLR M17/M22 A3048 RMK AO2 SLP336 T11671217 $


Station Type Date Time Source
KCMI Decoded METAR 2022/01/26 07:53 UTC NOAA

UNIV OF ILLINOIS-WILLARD, IL, United States (KCMI) 40-02N 088-16W 228M
Jan 26, 2022 - 02:53 AM EST / 2022.01.26 0753 UTC
Wind: from the NW (320 degrees) at 10 MPH (9 KT):0
Visibility: 10 mile(s):0
Sky conditions: clear
Temperature: 1.9 F (-16.7 C)
Windchill: -13 F (-25 C):2
Dew Point: -7.1 F (-21.7 C)
Relative Humidity: 65%
Pressure (altimeter): 30.48 in. Hg (1032 hPa)
ob: KCMI 260753Z AUTO 32009KT 10SM CLR M17/M22 A3048 RMK AO2 SLP336 T11671217
cycle: 8

Station Type Date Time Source
KCMI TAF 2022/01/26 06:22 UTC NOAA

TAF KCMI 260520Z 2606/2706 32009KT P6SM SKC
FM262100 19008KT P6SM SKC

Example: see airport list